Time;durP1;ratioP1;P1;durP2;ratioP2;P2;SDS_P1;SDS_P2;PMS_P1;PMS_P2;Temp;Humidity;BMP_temperature;BMP_pressure;BME280_temperature;BME280_humidity;BME280_pressure;Samples;Min_cycle;Max_cycle;Signal;HPM_P1;HPM_P2
2023/01/28 00:00:05;;;;;;;;;;;1.50;99.90;2.20;99844.00;;;;345987;28;83437;-85
2023/01/28 00:00:18;;;;;;;;;;;1.50;99.90;2.20;99838.00;;;;345177;28;90111;-84
2023/01/28 00:00:30;;;;;;;;;;;1.50;99.90;2.20;99839.00;;;;344487;28;83481;-84
2023/01/28 00:00:42;;;;;;;;;;;1.50;99.90;2.20;99834.00;;;;344892;28;89363;-84
2023/01/28 00:00:54;;;;;;;;;;;1.60;99.90;2.30;99840.00;;;;346387;28;83577;-84
2023/01/28 00:01:09;;;;;;;;;;;1.50;99.90;2.30;99836.00;;;;343998;28;89155;-84
2023/01/28 00:01:21;;;;;;;;;;;1.60;99.90;2.30;99843.00;;;;344392;28;83578;-84
2023/01/28 00:01:33;;;;;;;;;;;1.60;99.90;2.30;99844.00;;;;342162;28;89058;-84
2023/01/28 00:01:45;;;;;;;;;;;1.60;99.90;2.20;99834.00;;;;342942;28;83563;-84
2023/01/28 00:01:56;;;;;;;;;;;1.60;99.90;2.30;99849.00;;;;343005;28;88487;-84
2023/01/28 00:02:08;;;;;;;;;;;1.60;99.90;2.20;99843.00;;;;344822;28;82531;-85
2023/01/28 00:02:20;;;;;;;;;;;1.60;99.90;2.20;99845.00;;;;343970;28;93158;-84
2023/01/28 00:02:32;;;;;;;;;;;1.60;99.90;2.30;99843.00;;;;343381;28;83487;-84
2023/01/28 00:02:46;;;;;;;;;;;1.60;99.90;2.20;99847.00;;;;344227;28;91885;-84
2023/01/28 00:02:58;;;;;;;;;;;1.60;99.90;2.20;99843.00;;;;344670;28;82492;-84
2023/01/28 00:03:10;;;;;;;;;;;1.60;99.90;2.30;99837.00;;;;343554;28;89105;-84
2023/01/28 00:03:21;;;;;;;;;;;1.60;99.90;2.20;99837.00;;;;344581;28;84150;-84
2023/01/28 00:03:34;;;;;;;;;;;1.60;99.90;2.10;99843.00;;;;342861;28;86837;-84
2023/01/28 00:03:50;;;;;;;;;;;1.60;99.90;2.10;99835.00;;;;342542;28;84483;-84
2023/01/28 00:04:02;;;;;;;;;;;1.60;99.90;2.10;99834.00;;;;342916;28;89160;-84
2023/01/28 00:04:14;;;;;;;;;;;1.60;99.90;2.20;99844.00;;;;343945;28;82591;-84
2023/01/28 00:04:26;;;;;;;;;;;1.50;99.90;2.20;99840.00;;;;343210;28;90380;-84
2023/01/28 00:04:38;;;;;;;;;;;1.50;99.90;2.20;99836.00;;;;344935;28;83169;-84
2023/01/28 00:04:50;;;;;;;;;;;1.60;99.90;2.20;99846.00;;;;344526;28;89283;-84
2023/01/28 00:05:02;;;;;;;;;;;1.60;99.90;2.20;99837.00;;;;344390;28;83556;-84
2023/01/28 00:05:14;;;;;;;;;;;1.60;99.90;2.20;99841.00;;;;343022;28;88783;-84
2023/01/28 00:05:28;;;;;;;;;;;1.60;99.90;2.20;99834.00;;;;343938;28;83263;-84
2023/01/28 00:05:40;;;;;;;;;;;1.50;99.90;2.20;99835.00;;;;345734;28;89130;-85
2023/01/28 00:06:00;;;;;;;;;;;1.60;99.90;2.30;99837.00;;;;344743;28;83437;-84
2023/01/28 00:06:13;;;;;;;;;;;1.60;99.90;2.20;99843.00;;;;342860;28;89455;-85
2023/01/28 00:06:24;;;;;;;;;;;1.60;99.90;2.20;99833.00;;;;342337;28;82553;-84
2023/01/28 00:06:37;;;;;;;;;;;1.60;99.90;2.20;99835.00;;;;343966;28;92970;-84
2023/01/28 00:06:48;;;;;;;;;;;1.60;99.90;2.20;99840.00;;;;345184;28;84406;-85
2023/01/28 00:07:00;;;;;;;;;;;1.50;99.90;2.20;99846.00;;;;344759;28;91124;-84
2023/01/28 00:07:12;;;;;;;;;;;1.60;99.90;2.20;99842.00;;;;346174;28;83342;-84
2023/01/28 00:07:23;;;;;;;;;;;1.60;99.90;2.20;99845.00;;;;345639;28;92926;-84
2023/01/28 00:07:35;;;;;;;;;;;1.60;99.90;2.20;99851.00;;;;346184;28;82402;-84
2023/01/28 00:07:51;;;;;;;;;;;1.60;99.90;2.20;99842.00;;;;345521;28;89225;-84
2023/01/28 00:08:02;;;;;;;;;;;1.60;99.90;2.20;99849.00;;;;342131;28;83151;-85
2023/01/28 00:08:14;;;;;;;;;;;1.60;99.90;2.20;99848.00;;;;342816;28;89389;-84
2023/01/28 00:08:26;;;;;;;;;;;1.60;99.90;2.20;99847.00;;;;346163;28;83954;-84
2023/01/28 00:08:38;;;;;;;;;;;1.50;99.90;2.20;99843.00;;;;344339;28;89758;-84
2023/01/28 00:08:49;;;;;;;;;;;1.60;99.90;2.20;99840.00;;;;344802;28;83430;-85
2023/01/28 00:09:01;;;;;;;;;;;1.60;99.90;2.20;99852.00;;;;342088;28;90323;-85
2023/01/28 00:09:13;;;;;;;;;;;1.50;99.90;2.20;99846.00;;;;344362;28;83520;-84
2023/01/28 00:09:25;;;;;;;;;;;1.50;99.90;2.20;99843.00;;;;342431;28;92202;-84
2023/01/28 00:09:38;;;;;;;;;;;1.60;99.90;2.20;99841.00;;;;343455;28;83534;-84
2023/01/28 00:09:49;;;;;;;;;;;1.60;99.90;2.20;99847.00;;;;343289;28;88843;-84
2023/01/28 00:10:02;;;;;;;;;;;1.60;99.90;2.20;99837.00;;;;346187;28;83338;-84
2023/01/28 00:10:14;;;;;;;;;;;1.50;99.90;2.10;99842.00;;;;344180;28;88901;-84
2023/01/28 00:10:26;;;;;;;;;;;1.50;99.90;2.10;99840.00;;;;343272;28;83206;-84
2023/01/28 00:10:41;;;;;;;;;;;1.50;99.90;2.10;99844.00;;;;341464;28;91733;-84
2023/01/28 00:10:53;;;;;;;;;;;1.50;99.90;2.10;99840.00;;;;343347;28;83749;-85
2023/01/28 00:11:05;;;;;;;;;;;1.50;99.90;2.20;99844.00;;;;342778;28;89060;-84
2023/01/28 00:11:17;;;;;;;;;;;1.50;99.90;2.20;99848.00;;;;343788;28;83477;-84
2023/01/28 00:11:29;;;;;;;;;;;1.50;99.90;2.20;99850.00;;;;344208;28;88704;-83
2023/01/28 00:11:41;;;;;;;;;;;1.50;99.90;2.20;99840.00;;;;345782;28;83264;-84
2023/01/28 00:11:53;;;;;;;;;;;1.50;99.90;2.20;99850.00;;;;344298;28;89538;-84
2023/01/28 00:12:05;;;;;;;;;;;1.50;99.90;2.20;99841.00;;;;343398;28;82439;-84
2023/01/28 00:12:16;;;;;;;;;;;1.50;99.90;2.20;99853.00;;;;342715;28;88585;-84
2023/01/28 00:12:28;;;;;;;;;;;1.50;99.90;2.10;99849.00;;;;347375;28;83383;-84
2023/01/28 00:12:40;;;;;;;;;;;1.50;99.90;2.10;99842.00;;;;345706;28;89323;-84
2023/01/28 00:12:52;;;;;;;;;;;1.50;99.90;2.00;99846.00;;;;347028;27;84015;-84
2023/01/28 00:13:04;;;;;;;;;;;1.50;99.90;2.10;99845.00;;;;343907;28;89050;-83
2023/01/28 00:13:16;;;;;;;;;;;1.50;99.90;2.10;99848.00;;;;344380;28;83375;-84
2023/01/28 00:13:28;;;;;;;;;;;1.50;99.90;2.10;99845.00;;;;342932;28;88143;-84
2023/01/28 00:13:40;;;;;;;;;;;1.50;99.90;2.10;99845.00;;;;345744;28;83321;-83
2023/01/28 00:13:52;;;;;;;;;;;1.50;99.90;2.10;99838.00;;;;344104;28;88586;-84
2023/01/28 00:14:04;;;;;;;;;;;1.50;99.90;2.10;99844.00;;;;344950;28;82559;-84
2023/01/28 00:14:16;;;;;;;;;;;1.50;99.90;2.10;99849.00;;;;343040;28;88449;-84
2023/01/28 00:14:28;;;;;;;;;;;1.50;99.90;2.10;99846.00;;;;343300;28;83445;-84
2023/01/28 00:14:40;;;;;;;;;;;1.50;99.90;2.10;99837.00;;;;341951;28;93420;-84
2023/01/28 00:14:51;;;;;;;;;;;1.50;99.90;2.20;99833.00;;;;342384;28;85115;-84
2023/01/28 00:15:04;;;;;;;;;;;1.50;99.90;2.20;99843.00;;;;342371;28;92807;-84
2023/01/28 00:15:16;;;;;;;;;;;1.50;99.90;2.10;99844.00;;;;346445;28;83510;-84
2023/01/28 00:15:28;;;;;;;;;;;1.50;99.90;2.10;99828.00;;;;346170;28;89384;-84
2023/01/28 00:15:39;;;;;;;;;;;1.50;99.90;2.20;99839.00;;;;345499;28;83807;-85
2023/01/28 00:15:56;;;;;;;;;;;1.50;99.90;2.20;99837.00;;;;345499;28;87704;-84
2023/01/28 00:16:08;;;;;;;;;;;1.50;99.90;2.20;99842.00;;;;344622;28;83768;-85
2023/01/28 00:16:23;;;;;;;;;;;1.50;99.90;2.20;99846.00;;;;342951;28;89229;-84
2023/01/28 00:16:35;;;;;;;;;;;1.50;99.90;2.20;99837.00;;;;343379;28;82627;-84
2023/01/28 00:16:47;;;;;;;;;;;1.50;99.90;2.10;99841.00;;;;342709;28;90114;-84
2023/01/28 00:16:58;;;;;;;;;;;1.50;99.90;2.20;99846.00;;;;344678;28;83430;-84
2023/01/28 00:17:11;;;;;;;;;;;1.50;99.90;2.20;99842.00;;;;344200;28;89417;-83
2023/01/28 00:17:22;;;;;;;;;;;1.50;99.90;2.20;99844.00;;;;344546;28;83292;-84
2023/01/28 00:17:35;;;;;;;;;;;1.50;99.90;2.20;99843.00;;;;343056;28;88761;-84
2023/01/28 00:17:47;;;;;;;;;;;1.50;99.90;2.20;99838.00;;;;344709;28;84154;-84
2023/01/28 00:17:59;;;;;;;;;;;1.50;99.90;2.20;99847.00;;;;344215;28;89480;-84
2023/01/28 00:18:11;;;;;;;;;;;1.50;99.90;2.20;99845.00;;;;345168;28;83422;-84
2023/01/28 00:18:22;;;;;;;;;;;1.50;99.90;2.10;99846.00;;;;345766;28;89435;-84
2023/01/28 00:18:34;;;;;;;;;;;1.50;99.90;2.20;99843.00;;;;344063;28;83490;-84
2023/01/28 00:18:46;;;;;;;;;;;1.50;99.90;2.20;99851.00;;;;345691;28;90090;-84
2023/01/28 00:18:57;;;;;;;;;;;1.50;99.90;2.20;99845.00;;;;344324;28;83324;-84
2023/01/28 00:19:09;;;;;;;;;;;1.50;99.90;2.20;99846.00;;;;343977;28;89206;-84
2023/01/28 00:19:22;;;;;;;;;;;1.50;99.90;2.20;99845.00;;;;344590;28;83362;-84
2023/01/28 00:19:33;;;;;;;;;;;1.50;99.90;2.20;99849.00;;;;345813;28;89438;-85
2023/01/28 00:19:45;;;;;;;;;;;1.50;99.90;2.20;99842.00;;;;345966;28;83282;-84
2023/01/28 00:19:57;;;;;;;;;;;1.50;99.90;2.20;99844.00;;;;345687;28;92148;-84
2023/01/28 00:20:09;;;;;;;;;;;1.50;99.90;2.20;99844.00;;;;347495;28;83345;-84
2023/01/28 00:20:21;;;;;;;;;;;1.50;99.90;2.20;99833.00;;;;346334;28;88930;-84
2023/01/28 00:20:34;;;;;;;;;;;1.60;99.90;2.20;99839.00;;;;347391;28;83248;-84
2023/01/28 00:20:55;;;;;;;;;;;1.60;99.90;2.20;99843.00;;;;346255;28;93503;-84
2023/01/28 00:21:09;;;;;;;;;;;1.60;99.90;2.30;99835.00;;;;345447;28;83534;-84
2023/01/28 00:21:21;;;;;;;;;;;1.60;99.90;2.20;99838.00;;;;342731;28;92037;-84
2023/01/28 00:21:33;;;;;;;;;;;1.60;99.90;2.20;99828.00;;;;346543;28;83372;-84
2023/01/28 00:21:44;;;;;;;;;;;1.60;99.90;2.20;99847.00;;;;343436;28;88257;-84
2023/01/28 00:21:56;;;;;;;;;;;1.60;99.90;2.20;99839.00;;;;344226;28;83556;-84
2023/01/28 00:22:08;;;;;;;;;;;1.60;99.90;2.20;99841.00;;;;344258;28;89465;-84
2023/01/28 00:22:20;;;;;;;;;;;1.50;99.90;2.20;99842.00;;;;346052;28;83238;-84
2023/01/28 00:22:32;;;;;;;;;;;1.60;99.90;2.20;99834.00;;;;344992;28;89455;-84
2023/01/28 00:22:47;;;;;;;;;;;1.60;99.90;2.30;99843.00;;;;344748;28;83580;-84
2023/01/28 00:23:02;;;;;;;;;;;1.60;99.90;2.30;99843.00;;;;345637;28;90127;-84
2023/01/28 00:23:14;;;;;;;;;;;1.60;99.90;2.30;99841.00;;;;344523;28;83471;-84
2023/01/28 00:23:27;;;;;;;;;;;1.60;99.90;2.30;99850.00;;;;342899;28;89609;-85
2023/01/28 00:23:39;;;;;;;;;;;1.60;99.90;2.20;99837.00;;;;347493;28;83311;-84
2023/01/28 00:23:53;;;;;;;;;;;1.60;99.90;2.20;99844.00;;;;344306;28;89251;-84
2023/01/28 00:24:05;;;;;;;;;;;1.60;99.90;2.20;99840.00;;;;346105;27;84842;-84
2023/01/28 00:24:17;;;;;;;;;;;1.60;99.90;2.20;99838.00;;;;346396;27;90512;-83
2023/01/28 00:24:29;;;;;;;;;;;1.60;99.90;2.20;99842.00;;;;345335;28;83455;-84
2023/01/28 00:24:41;;;;;;;;;;;1.60;99.90;2.20;99848.00;;;;346836;28;88849;-84
2023/01/28 00:24:53;;;;;;;;;;;1.60;99.90;2.20;99837.00;;;;344836;28;83270;-83
2023/01/28 00:25:04;;;;;;;;;;;1.60;99.90;2.20;99838.00;;;;344146;28;90126;-84
2023/01/28 00:25:16;;;;;;;;;;;1.60;99.90;2.20;99845.00;;;;347369;27;83364;-83
2023/01/28 00:25:28;;;;;;;;;;;1.60;99.90;2.10;99850.00;;;;346600;28;88535;-84
2023/01/28 00:25:40;;;;;;;;;;;1.50;99.90;2.10;99842.00;;;;347147;27;83329;-84
2023/01/28 00:25:53;;;;;;;;;;;1.50;99.90;2.10;99850.00;;;;342967;28;87874;-84
2023/01/28 00:26:08;;;;;;;;;;;1.50;99.90;2.10;99837.00;;;;345244;28;82608;-84
2023/01/28 00:26:21;;;;;;;;;;;1.50;99.90;2.20;99845.00;;;;345642;28;89074;-84
2023/01/28 00:26:32;;;;;;;;;;;1.50;99.90;2.20;99831.00;;;;346165;28;84096;-84
2023/01/28 00:26:44;;;;;;;;;;;1.50;99.90;2.20;99838.00;;;;345749;28;89132;-84
2023/01/28 00:26:56;;;;;;;;;;;1.50;99.90;2.20;99844.00;;;;343954;28;83575;-83
2023/01/28 00:27:08;;;;;;;;;;;1.60;99.90;2.10;99839.00;;;;343063;28;90600;-84
2023/01/28 00:27:19;;;;;;;;;;;1.50;99.90;2.10;99835.00;;;;344597;28;82619;-84
2023/01/28 00:27:31;;;;;;;;;;;1.50;99.90;2.20;99833.00;;;;341706;28;88105;-84
2023/01/28 00:27:44;;;;;;;;;;;1.50;99.90;2.20;99839.00;;;;342163;28;83575;-84
2023/01/28 00:27:55;;;;;;;;;;;1.50;99.90;2.20;99841.00;;;;342444;28;89655;-84
2023/01/28 00:28:07;;;;;;;;;;;1.50;99.90;2.20;99841.00;;;;343281;28;83548;-84
2023/01/28 00:28:20;;;;;;;;;;;1.50;99.90;2.20;99840.00;;;;342997;28;92254;-83
2023/01/28 00:28:32;;;;;;;;;;;1.50;99.90;2.20;99842.00;;;;343583;28;83206;-84
2023/01/28 00:28:44;;;;;;;;;;;1.50;99.90;2.10;99835.00;;;;344062;28;89110;-84
2023/01/28 00:28:55;;;;;;;;;;;1.50;99.90;2.10;99843.00;;;;344811;28;82371;-84
2023/01/28 00:29:07;;;;;;;;;;;1.50;99.90;2.20;99844.00;;;;345943;28;91623;-83
2023/01/28 00:29:19;;;;;;;;;;;1.50;99.90;2.10;99842.00;;;;345517;28;82442;-84
2023/01/28 00:29:31;;;;;;;;;;;1.50;99.90;2.10;99841.00;;;;341957;28;88743;-84
2023/01/28 00:29:42;;;;;;;;;;;1.50;99.90;2.20;99850.00;;;;343065;28;83560;-84
2023/01/28 00:29:54;;;;;;;;;;;1.50;99.90;2.20;99841.00;;;;342719;28;90277;-84
2023/01/28 00:30:06;;;;;;;;;;;1.50;99.90;2.10;99843.00;;;;341940;28;83648;-83
2023/01/28 00:30:19;;;;;;;;;;;1.50;99.90;2.20;99834.00;;;;342970;28;88249;-83
2023/01/28 00:30:30;;;;;;;;;;;1.50;99.90;2.20;99839.00;;;;343458;28;82414;-84
2023/01/28 00:30:42;;;;;;;;;;;1.50;99.90;2.20;99837.00;;;;342919;28;92246;-84
2023/01/28 00:30:54;;;;;;;;;;;1.50;99.90;2.20;99834.00;;;;343730;28;83460;-84
2023/01/28 00:31:26;;;;;;;;;;;1.50;99.90;2.20;99836.00;;;;344749;28;90334;-84
2023/01/28 00:31:39;;;;;;;;;;;1.50;99.90;2.20;99848.00;;;;344831;28;82241;-84
2023/01/28 00:31:51;;;;;;;;;;;1.50;99.90;2.20;99844.00;;;;344215;28;92323;-84
2023/01/28 00:32:03;;;;;;;;;;;1.50;99.90;2.20;99838.00;;;;345157;28;84421;-83
2023/01/28 00:32:15;;;;;;;;;;;1.50;99.90;2.30;99843.00;;;;346566;28;89354;-84
2023/01/28 00:32:27;;;;;;;;;;;1.60;99.90;2.20;99842.00;;;;344794;28;82259;-85
2023/01/28 00:32:39;;;;;;;;;;;1.60;99.90;2.20;99836.00;;;;345797;28;89219;-84
2023/01/28 00:32:54;;;;;;;;;;;1.50;99.90;2.20;99829.00;;;;343668;28;83526;-84
2023/01/28 00:33:06;;;;;;;;;;;1.60;99.90;2.20;99833.00;;;;344205;28;88713;-84
2023/01/28 00:33:18;;;;;;;;;;;1.50;99.90;2.20;99844.00;;;;344530;28;83442;-85
2023/01/28 00:33:30;;;;;;;;;;;1.60;99.90;2.20;99847.00;;;;343523;28;90416;-85
2023/01/28 00:33:43;;;;;;;;;;;1.60;99.90;2.20;99832.00;;;;343251;28;83473;-85
2023/01/28 00:33:55;;;;;;;;;;;1.60;99.90;2.20;99844.00;;;;344215;28;88570;-84
2023/01/28 00:34:07;;;;;;;;;;;1.60;99.90;2.20;99845.00;;;;346523;28;83419;-84
2023/01/28 00:34:19;;;;;;;;;;;1.60;99.90;2.20;99840.00;;;;343798;28;89587;-84
2023/01/28 00:34:31;;;;;;;;;;;1.50;99.90;2.20;99846.00;;;;343444;28;83311;-84
2023/01/28 00:34:43;;;;;;;;;;;1.60;99.90;2.20;99836.00;;;;342431;28;89147;-84
2023/01/28 00:34:55;;;;;;;;;;;1.60;99.90;2.20;99842.00;;;;344099;28;82679;-84
2023/01/28 00:35:07;;;;;;;;;;;1.60;99.90;2.20;99831.00;;;;343459;28;89210;-84
2023/01/28 00:35:18;;;;;;;;;;;1.50;99.90;2.20;99844.00;;;;344519;28;83148;-83
2023/01/28 00:35:30;;;;;;;;;;;1.60;99.90;2.20;99833.00;;;;344206;28;89657;-85
2023/01/28 00:35:42;;;;;;;;;;;1.60;99.90;2.20;99834.00;;;;343971;28;82450;-84
2023/01/28 00:35:59;;;;;;;;;;;1.50;99.90;2.20;99839.00;;;;343877;28;89192;-84
2023/01/28 00:36:12;;;;;;;;;;;1.50;99.90;2.20;99838.00;;;;344573;28;82654;-84
2023/01/28 00:36:24;;;;;;;;;;;1.60;99.90;2.20;99840.00;;;;344682;28;89214;-84
2023/01/28 00:36:38;;;;;;;;;;;1.60;99.90;2.20;99830.00;;;;345035;28;83590;-83
2023/01/28 00:36:56;;;;;;;;;;;1.60;99.90;2.20;99836.00;;;;343058;28;92204;-84
2023/01/28 00:37:08;;;;;;;;;;;1.60;99.90;2.20;99830.00;;;;344299;28;83444;-83
2023/01/28 00:37:20;;;;;;;;;;;1.60;99.90;2.20;99829.00;;;;344102;28;89640;-84
2023/01/28 00:37:32;;;;;;;;;;;1.60;99.90;2.20;99838.00;;;;344460;28;83435;-83
2023/01/28 00:37:45;;;;;;;;;;;1.60;99.90;2.20;99831.00;;;;343660;28;89891;-84
2023/01/28 00:37:56;;;;;;;;;;;1.60;99.90;2.20;99833.00;;;;346118;28;83444;-84
2023/01/28 00:38:08;;;;;;;;;;;1.60;99.90;2.20;99832.00;;;;345497;28;89524;-84
2023/01/28 00:38:20;;;;;;;;;;;1.60;99.90;2.20;99830.00;;;;345595;27;83421;-83
2023/01/28 00:38:32;;;;;;;;;;;1.60;99.90;2.20;99827.00;;;;346104;28;89522;-84
2023/01/28 00:38:48;;;;;;;;;;;1.60;99.90;2.10;99832.00;;;;346050;28;83479;-84
2023/01/28 00:39:00;;;;;;;;;;;1.60;99.90;2.20;99827.00;;;;345193;28;88762;-84
2023/01/28 00:39:13;;;;;;;;;;;1.60;99.90;2.20;99830.00;;;;345688;28;83493;-84
2023/01/28 00:39:25;;;;;;;;;;;1.50;99.90;2.20;99828.00;;;;346886;27;88695;-84
2023/01/28 00:39:37;;;;;;;;;;;1.50;99.90;2.10;99828.00;;;;346849;27;83455;-84
2023/01/28 00:39:48;;;;;;;;;;;1.50;99.90;2.10;99827.00;;;;346080;27;90662;-84
2023/01/28 00:40:00;;;;;;;;;;;1.50;99.90;2.10;99826.00;;;;343872;28;83308;-84
2023/01/28 00:40:12;;;;;;;;;;;1.50;99.90;2.20;99831.00;;;;342934;28;90674;-84
2023/01/28 00:40:24;;;;;;;;;;;1.50;99.90;2.20;99831.00;;;;344236;28;83456;-84
2023/01/28 00:40:35;;;;;;;;;;;1.50;99.90;2.20;99830.00;;;;342745;28;88404;-84
2023/01/28 00:40:47;;;;;;;;;;;1.50;99.90;2.20;99828.00;;;;342616;28;82408;-84
2023/01/28 00:41:09;;;;;;;;;;;1.60;99.90;2.20;99823.00;;;;342199;28;89666;-83
2023/01/28 00:41:22;;;;;;;;;;;1.60;99.90;2.10;99830.00;;;;342811;28;83419;-84
2023/01/28 00:41:35;;;;;;;;;;;1.50;99.90;2.20;99821.00;;;;342914;28;91822;-85
2023/01/28 00:41:46;;;;;;;;;;;1.50;99.90;2.10;99822.00;;;;344442;28;83627;-84
2023/01/28 00:41:58;;;;;;;;;;;1.50;99.90;2.10;99830.00;;;;342511;28;92392;-83
2023/01/28 00:42:10;;;;;;;;;;;1.50;99.90;2.20;99825.00;;;;344952;28;82391;-84
2023/01/28 00:42:21;;;;;;;;;;;1.50;99.90;2.20;99828.00;;;;344317;28;89786;-84
2023/01/28 00:42:33;;;;;;;;;;;1.50;99.90;2.20;99826.00;;;;343419;28;83466;-84
2023/01/28 00:42:45;;;;;;;;;;;1.50;99.90;2.20;99825.00;;;;344274;28;92371;-84
2023/01/28 00:42:57;;;;;;;;;;;1.50;99.90;2.10;99830.00;;;;344816;28;82409;-84
2023/01/28 00:43:08;;;;;;;;;;;1.50;99.90;2.10;99838.00;;;;344539;28;89489;-84
2023/01/28 00:43:20;;;;;;;;;;;1.50;99.90;2.10;99823.00;;;;345611;28;82421;-84
2023/01/28 00:43:32;;;;;;;;;;;1.50;99.90;2.10;99831.00;;;;344324;28;89506;-84
2023/01/28 00:43:44;;;;;;;;;;;1.50;99.90;2.20;99826.00;;;;346094;28;83701;-84
2023/01/28 00:43:56;;;;;;;;;;;1.50;99.90;2.10;99826.00;;;;344221;28;90315;-84
2023/01/28 00:44:08;;;;;;;;;;;1.60;99.90;2.20;99830.00;;;;344342;28;83812;-84
2023/01/28 00:44:19;;;;;;;;;;;1.50;99.90;2.20;99830.00;;;;343232;28;89051;-84
2023/01/28 00:44:31;;;;;;;;;;;1.50;99.90;2.20;99833.00;;;;344729;28;82367;-84
2023/01/28 00:44:43;;;;;;;;;;;1.50;99.90;2.20;99824.00;;;;344370;28;89116;-84
2023/01/28 00:44:54;;;;;;;;;;;1.50;99.90;2.10;99827.00;;;;346086;28;82454;-84
2023/01/28 00:45:07;;;;;;;;;;;1.50;99.90;2.10;99826.00;;;;346919;27;88410;-84
2023/01/28 00:45:19;;;;;;;;;;;1.50;99.90;2.20;99831.00;;;;345236;28;83400;-83
2023/01/28 00:45:31;;;;;;;;;;;1.50;99.90;2.20;99821.00;;;;344716;28;88415;-83
2023/01/28 00:45:42;;;;;;;;;;;1.50;99.90;2.20;99831.00;;;;344367;28;83484;-84
2023/01/28 00:45:54;;;;;;;;;;;1.50;99.90;2.10;99836.00;;;;342622;28;90121;-84
2023/01/28 00:46:07;;;;;;;;;;;1.50;99.90;2.10;99825.00;;;;342265;28;83489;-84
2023/01/28 00:46:19;;;;;;;;;;;1.50;99.90;2.20;99831.00;;;;343361;28;89078;-84
2023/01/28 00:46:31;;;;;;;;;;;1.50;99.90;2.10;99825.00;;;;344384;28;84525;-83
2023/01/28 00:46:43;;;;;;;;;;;1.50;99.90;2.00;99827.00;;;;343907;28;89159;-84
2023/01/28 00:46:55;;;;;;;;;;;1.50;99.90;2.10;99832.00;;;;344376;28;83606;-85
2023/01/28 00:47:07;;;;;;;;;;;1.50;99.90;2.10;99822.00;;;;344252;28;89129;-85
2023/01/28 00:47:20;;;;;;;;;;;1.50;99.90;2.10;99825.00;;;;344661;28;82485;-84
2023/01/28 00:47:32;;;;;;;;;;;1.50;99.90;2.10;99821.00;;;;341145;28;89069;-84
2023/01/28 00:47:44;;;;;;;;;;;1.50;99.90;2.20;99830.00;;;;344594;28;82415;-84
2023/01/28 00:47:55;;;;;;;;;;;1.50;99.90;2.10;99838.00;;;;345489;28;90166;-84
2023/01/28 00:48:07;;;;;;;;;;;1.50;99.90;2.10;99833.00;;;;345252;28;83544;-84
2023/01/28 00:48:19;;;;;;;;;;;1.50;99.90;2.10;99826.00;;;;343768;28;89180;-84
2023/01/28 00:48:32;;;;;;;;;;;1.50;99.90;2.10;99833.00;;;;343516;28;83659;-83
2023/01/28 00:48:44;;;;;;;;;;;1.50;99.90;2.20;99830.00;;;;343786;28;88266;-84
2023/01/28 00:48:56;;;;;;;;;;;1.50;99.90;2.10;99828.00;;;;342574;28;83383;-85
2023/01/28 00:49:07;;;;;;;;;;;1.50;99.90;2.10;99819.00;;;;342375;28;88852;-84
2023/01/28 00:49:19;;;;;;;;;;;1.50;99.90;2.10;99831.00;;;;342731;28;82775;-84
2023/01/28 00:49:31;;;;;;;;;;;1.50;99.90;2.10;99830.00;;;;342560;28;89197;-83
2023/01/28 00:49:42;;;;;;;;;;;1.50;99.90;2.10;99830.00;;;;344643;28;82538;-85
2023/01/28 00:49:54;;;;;;;;;;;1.50;99.90;2.10;99834.00;;;;344212;28;90206;-85
2023/01/28 00:50:07;;;;;;;;;;;1.50;99.90;2.10;99826.00;;;;343262;28;85526;-84
2023/01/28 00:50:20;;;;;;;;;;;1.50;99.90;2.10;99826.00;;;;342622;28;89658;-84
2023/01/28 00:50:31;;;;;;;;;;;1.50;99.90;2.10;99825.00;;;;345784;28;83529;-84
2023/01/28 00:50:44;;;;;;;;;;;1.50;99.90;2.10;99826.00;;;;344322;28;89463;-84
2023/01/28 00:50:56;;;;;;;;;;;1.50;99.90;2.10;99823.00;;;;346124;28;83442;-84
2023/01/28 00:51:08;;;;;;;;;;;1.50;99.90;2.10;99832.00;;;;345640;28;89285;-84
2023/01/28 00:51:20;;;;;;;;;;;1.50;99.90;2.10;99821.00;;;;344796;28;83584;-84
2023/01/28 00:51:32;;;;;;;;;;;1.50;99.90;2.10;99829.00;;;;344349;28;89270;-84
2023/01/28 00:51:43;;;;;;;;;;;1.50;99.90;2.00;99825.00;;;;345374;28;84530;-84
2023/01/28 00:51:55;;;;;;;;;;;1.40;99.90;2.10;99828.00;;;;345004;28;90458;-84
2023/01/28 00:52:07;;;;;;;;;;;1.40;99.90;2.10;99828.00;;;;343359;28;83377;-84
2023/01/28 00:52:19;;;;;;;;;;;1.50;99.90;2.10;99828.00;;;;344116;28;89268;-84
2023/01/28 00:52:30;;;;;;;;;;;1.50;99.90;2.10;99822.00;;;;343448;28;83191;-84
2023/01/28 00:52:43;;;;;;;;;;;1.50;99.90;2.10;99817.00;;;;344376;28;87704;-84
2023/01/28 00:52:55;;;;;;;;;;;1.50;99.90;2.10;99828.00;;;;343917;28;84075;-84
2023/01/28 00:53:06;;;;;;;;;;;1.40;99.90;2.10;99828.00;;;;345052;28;90290;-84
2023/01/28 00:53:18;;;;;;;;;;;1.40;99.90;2.10;99823.00;;;;345445;28;83497;-84
2023/01/28 00:53:30;;;;;;;;;;;1.50;99.90;2.10;99812.00;;;;344263;28;92514;-84
2023/01/28 00:53:42;;;;;;;;;;;1.50;99.90;2.10;99819.00;;;;344633;28;83419;-85
2023/01/28 00:53:54;;;;;;;;;;;1.50;99.90;2.20;99817.00;;;;345652;28;88136;-84
2023/01/28 00:54:05;;;;;;;;;;;1.50;99.90;2.20;99820.00;;;;345390;28;83357;-84
2023/01/28 00:54:17;;;;;;;;;;;1.50;99.90;2.20;99826.00;;;;344869;28;92538;-84
2023/01/28 00:54:29;;;;;;;;;;;1.50;99.90;2.10;99812.00;;;;344520;28;83574;-84
2023/01/28 00:54:41;;;;;;;;;;;1.50;99.90;2.10;99812.00;;;;343509;28;89283;-84
2023/01/28 00:54:53;;;;;;;;;;;1.50;99.90;2.10;99817.00;;;;343781;28;85459;-84
2023/01/28 00:55:05;;;;;;;;;;;1.50;99.90;2.20;99824.00;;;;343794;28;90973;-85
2023/01/28 00:55:17;;;;;;;;;;;1.50;99.90;2.10;99820.00;;;;344649;28;83471;-84
2023/01/28 00:55:29;;;;;;;;;;;1.50;99.90;2.10;99825.00;;;;345677;28;92049;-85
2023/01/28 00:55:41;;;;;;;;;;;1.50;99.90;2.10;99826.00;;;;346015;28;83397;-84
2023/01/28 00:55:53;;;;;;;;;;;1.50;99.90;2.20;99826.00;;;;345515;28;92878;-85
2023/01/28 00:56:05;;;;;;;;;;;1.50;99.90;2.10;99819.00;;;;345310;28;83584;-84
2023/01/28 00:56:18;;;;;;;;;;;1.50;99.90;2.20;99803.00;;;;345175;28;88779;-84
2023/01/28 00:56:30;;;;;;;;;;;1.50;99.90;2.10;99827.00;;;;345690;28;83565;-84
2023/01/28 00:56:42;;;;;;;;;;;1.50;99.90;2.10;99828.00;;;;344288;28;89047;-84
2023/01/28 00:56:54;;;;;;;;;;;1.50;99.90;2.10;99819.00;;;;344678;28;83688;-84
2023/01/28 00:57:06;;;;;;;;;;;1.50;99.90;2.10;99826.00;;;;342902;28;88703;-84
2023/01/28 00:57:18;;;;;;;;;;;1.50;99.90;2.10;99824.00;;;;345581;28;83307;-83
2023/01/28 00:57:30;;;;;;;;;;;1.50;99.90;2.10;99826.00;;;;343629;28;90665;-85
2023/01/28 00:57:41;;;;;;;;;;;1.50;99.90;2.10;99818.00;;;;343389;28;83469;-84
2023/01/28 00:57:53;;;;;;;;;;;1.50;99.90;2.10;99825.00;;;;345636;28;89909;-84
2023/01/28 00:58:05;;;;;;;;;;;1.50;99.90;2.00;99821.00;;;;346943;28;83359;-83
2023/01/28 00:58:17;;;;;;;;;;;1.50;99.90;2.00;99821.00;;;;345693;28;89046;-85
2023/01/28 00:58:29;;;;;;;;;;;1.50;99.90;2.00;99820.00;;;;343242;28;83431;-85
2023/01/28 00:58:41;;;;;;;;;;;1.40;99.90;2.00;99826.00;;;;341479;28;89350;-84
2023/01/28 00:58:53;;;;;;;;;;;1.40;99.90;2.10;99819.00;;;;344694;28;82623;-85
2023/01/28 00:59:05;;;;;;;;;;;1.50;99.90;2.10;99827.00;;;;345160;28;91544;-84
2023/01/28 00:59:17;;;;;;;;;;;1.40;99.90;2.00;99817.00;;;;342906;28;82620;-84
2023/01/28 00:59:28;;;;;;;;;;;1.40;99.90;2.10;99809.00;;;;344353;28;89196;-84
2023/01/28 00:59:40;;;;;;;;;;;1.40;99.90;2.00;99811.00;;;;346048;28;83453;-84
2023/01/28 00:59:52;;;;;;;;;;;1.40;99.90;2.00;99812.00;;;;346991;28;89527;-84
2023/01/28 01:00:05;;;;;;;;;;;1.40;99.90;2.10;99820.00;;;;344590;28;82541;-84
2023/01/28 01:00:19;;;;;;;;;;;1.40;99.90;2.10;99826.00;;;;344322;28;89049;-84
2023/01/28 01:00:30;;;;;;;;;;;1.40;99.90;2.10;99823.00;;;;343207;28;82749;-86
2023/01/28 01:00:42;;;;;;;;;;;1.40;99.90;2.10;99821.00;;;;346937;28;92388;-85
2023/01/28 01:00:54;;;;;;;;;;;1.40;99.90;2.00;99811.00;;;;346151;28;82509;-84
2023/01/28 01:01:20;;;;;;;;;;;1.40;99.90;2.10;99824.00;;;;344263;28;89192;-85
2023/01/28 01:01:32;;;;;;;;;;;1.40;99.90;2.10;99819.00;;;;344393;28;83578;-84
2023/01/28 01:01:44;;;;;;;;;;;1.40;99.90;2.00;99823.00;;;;345160;28;89205;-84
2023/01/28 01:02:10;;;;;;;;;;;1.40;99.90;2.00;99819.00;;;;346431;28;83413;-84
2023/01/28 01:02:22;;;;;;;;;;;1.40;99.90;2.10;99833.00;;;;344417;28;90548;-84
2023/01/28 01:02:34;;;;;;;;;;;1.50;99.90;2.10;99832.00;;;;346108;28;83286;-84
2023/01/28 01:02:46;;;;;;;;;;;1.40;99.90;2.10;99827.00;;;;345616;28;89475;-84
2023/01/28 01:02:58;;;;;;;;;;;1.40;99.90;2.00;99821.00;;;;346097;28;82307;-84